createdAt,value
2017-08-10T00:00:49.715Z,0
2017-08-10T00:01:50.193Z,0
2017-08-10T00:02:50.273Z,0
2017-08-10T00:03:50.139Z,0
2017-08-10T00:04:50.199Z,0
2017-08-10T00:05:50.204Z,0
2017-08-10T00:06:50.242Z,0
2017-08-10T00:07:49.946Z,0
2017-08-10T00:08:50.297Z,0
2017-08-10T00:09:50.021Z,0
2017-08-10T00:10:50.791Z,0
2017-08-10T00:11:50.509Z,0
2017-08-10T00:12:50.851Z,0
2017-08-10T00:13:50.563Z,0
2017-08-10T00:14:50.600Z,0
2017-08-10T00:15:50.659Z,0
2017-08-10T00:16:50.996Z,0
2017-08-10T00:17:51.435Z,0
2017-08-10T00:18:51.480Z,0
2017-08-10T00:19:51.501Z,0
2017-08-10T00:20:51.535Z,0
2017-08-10T00:21:51.594Z,0
2017-08-10T00:22:51.617Z,0
2017-08-10T00:23:51.316Z,0
2017-08-10T00:24:51.326Z,0
2017-08-10T00:25:51.384Z,0
2017-08-10T00:26:51.752Z,0
2017-08-10T00:27:51.780Z,0
2017-08-10T00:28:51.816Z,0
2017-08-10T00:29:51.549Z,0
2017-08-10T00:30:51.581Z,0
2017-08-10T00:31:51.933Z,0
2017-08-10T00:32:51.977Z,0
2017-08-10T00:33:51.998Z,0
2017-08-10T00:34:52.049Z,0
2017-08-10T00:35:52.075Z,0
2017-08-10T00:36:51.772Z,0
2017-08-10T00:37:51.935Z,0
2017-08-10T00:38:51.634Z,0
2017-08-10T00:39:52.397Z,0
2017-08-10T00:40:52.131Z,0
2017-08-10T00:41:52.464Z,0
2017-08-10T00:42:52.602Z,0
2017-08-10T00:43:52.543Z,0
2017-08-10T00:44:51.937Z,0
2017-08-10T00:45:53.004Z,0
2017-08-10T00:46:52.731Z,0
2017-08-10T00:47:53.181Z,0
2017-08-10T00:48:53.115Z,0
2017-08-10T00:49:53.146Z,0
2017-08-10T00:50:53.197Z,0
2017-08-10T00:51:52.923Z,0
2017-08-10T00:52:53.405Z,0
2017-08-10T00:53:52.966Z,0
2017-08-10T00:54:53.438Z,0
2017-08-10T00:55:53.550Z,0
2017-08-10T00:56:54.619Z,0
2017-08-10T00:57:54.792Z,0
2017-08-10T00:58:54.689Z,0
2017-08-10T00:59:54.420Z,0
2017-08-10T01:00:54.761Z,0
2017-08-10T01:01:54.597Z,0
2017-08-10T01:02:54.857Z,0
2017-08-10T01:03:54.875Z,0
2017-08-10T01:04:54.906Z,0
2017-08-10T01:05:54.637Z,0
2017-08-10T01:06:54.663Z,0
2017-08-10T01:07:55.438Z,0
2017-08-10T01:08:55.467Z,0
2017-08-10T01:09:55.183Z,0
2017-08-10T01:10:55.535Z,0
2017-08-10T01:11:55.574Z,0
2017-08-10T01:12:55.616Z,0
2017-08-10T01:13:55.643Z,0
2017-08-10T01:14:55.678Z,0
2017-08-10T01:15:55.797Z,0
2017-08-10T01:16:55.531Z,0
2017-08-10T01:17:56.269Z,0
2017-08-10T01:18:56.306Z,0
2017-08-10T01:19:56.031Z,0
2017-08-10T01:20:56.378Z,0
2017-08-10T01:21:56.407Z,0
2017-08-10T01:22:56.481Z,0
2017-08-10T01:23:56.593Z,0
2017-08-10T01:24:56.519Z,0
2017-08-10T01:25:56.549Z,0
2017-08-10T01:26:56.586Z,0
2017-08-10T01:27:56.630Z,0
2017-08-10T01:28:56.677Z,0
2017-08-10T01:29:56.390Z,0
2017-08-10T01:30:56.829Z,0
2017-08-10T01:31:57.165Z,0
2017-08-10T01:32:57.215Z,0
2017-08-10T01:33:56.934Z,0
2017-08-10T01:34:57.404Z,0
2017-08-10T01:35:57.303Z,0
2017-08-10T01:36:57.030Z,0
2017-08-10T01:37:57.050Z,0
2017-08-10T01:38:57.406Z,0
2017-08-10T01:39:57.455Z,0
2017-08-10T01:40:57.155Z,0
2017-08-10T01:41:57.204Z,0
2017-08-10T01:42:57.555Z,0
2017-08-10T01:43:56.964Z,0
2017-08-10T01:44:57.302Z,0
2017-08-10T01:45:57.668Z,0
2017-08-10T01:46:57.704Z,0
2017-08-10T01:47:57.424Z,0
2017-08-10T01:48:58.170Z,0
2017-08-10T01:49:58.204Z,0
2017-08-10T01:50:58.248Z,0
2017-08-10T01:51:58.271Z,0
2017-08-10T01:52:58.018Z,0
2017-08-10T01:53:58.781Z,0
2017-08-10T01:54:58.823Z,0
2017-08-10T01:55:58.560Z,0
2017-08-10T01:56:58.892Z,0
2017-08-10T01:57:58.593Z,0
2017-08-10T01:58:59.011Z,0
2017-08-10T01:59:59.387Z,0
2017-08-10T02:00:59.147Z,0
2017-08-10T02:01:59.150Z,0
2017-08-10T02:02:59.481Z,0
2017-08-10T02:03:59.517Z,0
2017-08-10T02:04:59.617Z,0
2017-08-10T02:05:59.584Z,0
2017-08-10T02:06:59.620Z,0
2017-08-10T02:07:59.663Z,0
2017-08-10T02:08:59.691Z,0
2017-08-10T02:09:59.398Z,0
2017-08-10T02:10:59.438Z,0
2017-08-10T02:11:59.574Z,0
2017-08-10T02:12:59.912Z,0
2017-08-10T02:13:59.319Z,0
2017-08-10T02:15:00.077Z,0
2017-08-10T02:16:00.122Z,0
2017-08-10T02:16:59.882Z,0
2017-08-10T02:18:00.008Z,0
2017-08-10T02:19:01.098Z,0
2017-08-10T02:20:01.120Z,0
2017-08-10T02:21:01.180Z,0
2017-08-10T02:22:00.870Z,0
2017-08-10T02:23:01.610Z,0
2017-08-10T02:24:01.655Z,0
2017-08-10T02:25:01.676Z,0
2017-08-10T02:26:01.714Z,0
2017-08-10T02:27:01.435Z,0
2017-08-10T02:28:01.565Z,0
2017-08-10T02:29:02.009Z,0
2017-08-10T02:30:02.370Z,0
2017-08-10T02:31:02.212Z,0
2017-08-10T02:32:02.225Z,0
2017-08-10T02:33:02.304Z,0
2017-08-10T02:34:02.617Z,0
2017-08-10T02:35:01.714Z,0
2017-08-10T02:36:02.371Z,0
2017-08-10T02:37:02.725Z,0
2017-08-10T02:38:02.429Z,0
2017-08-10T02:39:03.197Z,0
2017-08-10T02:40:03.244Z,0
2017-08-10T02:41:02.685Z,0
2017-08-10T02:42:03.770Z,0
2017-08-10T02:43:03.809Z,0
2017-08-10T02:44:03.847Z,0
2017-08-10T02:45:03.875Z,0
2017-08-10T02:46:03.946Z,0
2017-08-10T02:47:03.652Z,0
2017-08-10T02:48:03.979Z,0
2017-08-10T02:49:04.049Z,0
2017-08-10T02:50:04.050Z,0
2017-08-10T02:51:04.102Z,0
2017-08-10T02:52:03.486Z,0
2017-08-10T02:53:04.579Z,0
2017-08-10T02:54:04.375Z,0
2017-08-10T02:55:04.710Z,0
2017-08-10T02:56:04.391Z,0
2017-08-10T02:57:04.379Z,0
2017-08-10T02:58:04.806Z,0
2017-08-10T02:59:04.842Z,0
2017-08-10T03:00:04.956Z,0
2017-08-10T03:01:04.906Z,0
2017-08-10T03:02:04.630Z,0
2017-08-10T03:03:04.673Z,0
2017-08-10T03:04:04.701Z,0
2017-08-10T03:05:05.210Z,0
2017-08-10T03:06:05.194Z,0
2017-08-10T03:07:05.235Z,0
2017-08-10T03:08:05.277Z,0
2017-08-10T03:09:05.502Z,0
2017-08-10T03:10:05.335Z,0
2017-08-10T03:11:05.070Z,0
2017-08-10T03:12:05.097Z,0
2017-08-10T03:13:05.444Z,0
2017-08-10T03:14:05.479Z,0
2017-08-10T03:15:05.270Z,0
2017-08-10T03:16:06.036Z,0
2017-08-10T03:17:06.066Z,0
2017-08-10T03:18:06.105Z,4
2017-08-10T03:19:05.830Z,4
2017-08-10T03:20:06.588Z,0
2017-08-10T03:21:06.272Z,4
2017-08-10T03:22:06.671Z,4
2017-08-10T03:23:06.350Z,8
2017-08-10T03:24:06.420Z,4
2017-08-10T03:25:07.286Z,8
2017-08-10T03:26:06.931Z,8
2017-08-10T03:27:07.055Z,8
2017-08-10T03:28:08.129Z,12
2017-08-10T03:29:08.167Z,12
2017-08-10T03:30:07.879Z,12
2017-08-10T03:31:08.234Z,16
2017-08-10T03:32:08.279Z,16
2017-08-10T03:33:07.977Z,16
2017-08-10T03:34:08.724Z,20
2017-08-10T03:35:08.754Z,20
2017-08-10T03:36:09.249Z,24
2017-08-10T03:37:09.324Z,24
2017-08-10T03:38:09.274Z,28
2017-08-10T03:39:08.979Z,32
2017-08-10T03:40:09.734Z,36
2017-08-10T03:41:09.776Z,40
2017-08-10T03:42:09.488Z,44
2017-08-10T03:43:09.855Z,52
2017-08-10T03:44:09.559Z,56
2017-08-10T03:45:09.674Z,60
2017-08-10T03:46:10.104Z,64
2017-08-10T03:47:10.134Z,68
2017-08-10T03:48:10.152Z,76
2017-08-10T03:49:10.521Z,84
2017-08-10T03:50:10.278Z,92
2017-08-10T03:51:10.405Z,108
2017-08-10T03:52:10.771Z,116
2017-08-10T03:53:10.476Z,124
2017-08-10T03:54:11.006Z,132
2017-08-10T03:55:11.040Z,140
2017-08-10T03:56:11.293Z,148
2017-08-10T03:57:11.014Z,152
2017-08-10T03:58:11.371Z,156
2017-08-10T03:59:11.411Z,160
2017-08-10T04:00:17.732Z,160
2017-08-10T04:01:11.481Z,164
2017-08-10T04:02:11.573Z,176
2017-08-10T04:03:11.485Z,196
2017-08-10T04:04:11.500Z,220
2017-08-10T04:05:11.273Z,244
2017-08-10T04:06:11.284Z,268
2017-08-10T04:07:11.605Z,284
2017-08-10T04:08:11.377Z,292
2017-08-10T04:09:11.681Z,296
2017-08-10T04:10:11.809Z,292
2017-08-10T04:11:11.435Z,284
2017-08-10T04:12:11.789Z,280
2017-08-10T04:13:11.528Z,268
2017-08-10T04:14:11.578Z,268
2017-08-10T04:15:11.970Z,260
2017-08-10T04:16:11.927Z,260
2017-08-10T04:17:11.953Z,256
2017-08-10T04:18:11.700Z,256
2017-08-10T04:19:11.408Z,252
2017-08-10T04:20:11.858Z,240
2017-08-10T04:21:12.244Z,256
2017-08-10T04:22:12.576Z,292
2017-08-10T04:23:12.650Z,328
2017-08-10T04:24:12.333Z,364
2017-08-10T04:25:12.711Z,400
2017-08-10T04:26:13.051Z,440
2017-08-10T04:27:13.104Z,480
2017-08-10T04:28:13.113Z,524
2017-08-10T04:29:12.837Z,556
2017-08-10T04:30:13.745Z,588
2017-08-10T04:31:13.546Z,620
2017-08-10T04:32:13.621Z,652
2017-08-10T04:33:13.631Z,660
2017-08-10T04:34:13.394Z,656
2017-08-10T04:35:13.981Z,652
2017-08-10T04:36:13.742Z,644
2017-08-10T04:37:13.772Z,632
2017-08-10T04:38:13.476Z,620
2017-08-10T04:39:13.586Z,572
2017-08-10T04:40:13.931Z,500
2017-08-10T04:41:14.618Z,452
2017-08-10T04:42:14.334Z,448
2017-08-10T04:43:14.367Z,468
2017-08-10T04:44:14.742Z,504
2017-08-10T04:45:14.758Z,548
2017-08-10T04:46:14.772Z,608
2017-08-10T04:47:14.544Z,688
2017-08-10T04:48:14.853Z,780
2017-08-10T04:49:14.887Z,864
2017-08-10T04:50:14.616Z,924
2017-08-10T04:51:14.953Z,952
2017-08-10T04:52:15.034Z,980
2017-08-10T04:53:15.052Z,1024
2017-08-10T04:54:15.082Z,1080
2017-08-10T04:55:15.098Z,1120
2017-08-10T04:56:15.145Z,1148
2017-08-10T04:57:15.173Z,1168
2017-08-10T04:58:15.215Z,1220
2017-08-10T04:59:14.954Z,1268
2017-08-10T05:00:15.315Z,1308
2017-08-10T05:01:15.703Z,1324
2017-08-10T05:02:15.785Z,1288
2017-08-10T05:03:15.114Z,1220
2017-08-10T05:04:15.481Z,1144
2017-08-10T05:05:16.130Z,1076
2017-08-10T05:06:16.522Z,1008
2017-08-10T05:07:16.877Z,944
2017-08-10T05:08:16.871Z,860
2017-08-10T05:09:16.614Z,788
2017-08-10T05:10:16.978Z,756
2017-08-10T05:11:16.675Z,772
2017-08-10T05:12:16.379Z,824
2017-08-10T05:13:17.093Z,876
2017-08-10T05:14:16.208Z,908
2017-08-10T05:15:17.184Z,944
2017-08-10T05:16:17.206Z,960
2017-08-10T05:17:16.318Z,980
2017-08-10T05:18:16.970Z,1012
2017-08-10T05:19:17.014Z,1048
2017-08-10T05:20:17.051Z,1084
2017-08-10T05:21:17.049Z,1112
2017-08-10T05:22:17.112Z,1152
2017-08-10T05:23:17.444Z,1148
2017-08-10T05:24:17.186Z,1132
2017-08-10T05:25:17.230Z,1116
2017-08-10T05:26:17.586Z,1096
2017-08-10T05:27:17.619Z,1092
2017-08-10T05:28:18.242Z,1120
2017-08-10T05:29:17.076Z,1148
2017-08-10T05:30:17.771Z,1160
2017-08-10T05:31:18.077Z,1152
2017-08-10T05:32:17.832Z,1152
2017-08-10T05:33:18.154Z,1160
2017-08-10T05:34:18.171Z,1176
2017-08-10T05:35:17.911Z,1188
2017-08-10T05:36:17.971Z,1184
2017-08-10T05:37:18.614Z,1180
2017-08-10T05:38:18.002Z,1156
2017-08-10T05:39:18.684Z,1108
2017-08-10T05:40:18.706Z,1056
2017-08-10T05:41:18.689Z,1004
2017-08-10T05:42:19.063Z,972
2017-08-10T05:43:18.770Z,956
2017-08-10T05:44:19.157Z,960
2017-08-10T05:45:19.181Z,1000
2017-08-10T05:46:18.906Z,1048
2017-08-10T05:47:19.563Z,1104
2017-08-10T05:48:19.240Z,1164
2017-08-10T05:49:19.613Z,1224
2017-08-10T05:50:19.032Z,1264
2017-08-10T05:51:20.012Z,1300
2017-08-10T05:52:19.826Z,1364
2017-08-10T05:53:20.074Z,1420
2017-08-10T05:54:19.515Z,1492
2017-08-10T05:55:20.173Z,1592
2017-08-10T05:56:20.541Z,1628
2017-08-10T05:57:20.552Z,1640
2017-08-10T05:58:20.269Z,1660
2017-08-10T05:59:20.614Z,1680
2017-08-10T06:00:19.996Z,1668
2017-08-10T06:01:20.375Z,1620
2017-08-10T06:02:20.413Z,1576
2017-08-10T06:03:20.740Z,1536
2017-08-10T06:04:20.452Z,1504
2017-08-10T06:05:20.489Z,1476
2017-08-10T06:06:20.619Z,1432
2017-08-10T06:07:20.557Z,1420
2017-08-10T06:08:20.919Z,1448
2017-08-10T06:09:21.285Z,1504
2017-08-10T06:10:21.296Z,1616
2017-08-10T06:11:21.638Z,1780
2017-08-10T06:12:21.694Z,1924
2017-08-10T06:13:21.718Z,2032
2017-08-10T06:14:22.058Z,2152
2017-08-10T06:15:21.751Z,2420
2017-08-10T06:16:22.141Z,2896
2017-08-10T06:17:22.173Z,3436
2017-08-10T06:18:22.225Z,3852
2017-08-10T06:19:22.232Z,3888
2017-08-10T06:20:21.964Z,3696
2017-08-10T06:21:21.968Z,3524
2017-08-10T06:22:22.293Z,3500
2017-08-10T06:23:22.392Z,3580
2017-08-10T06:24:23.040Z,3760
2017-08-10T06:25:22.137Z,3960
2017-08-10T06:26:22.844Z,3944
2017-08-10T06:27:22.570Z,3788
2017-08-10T06:28:23.557Z,3588
2017-08-10T06:29:23.272Z,3416
2017-08-10T06:30:23.614Z,3280
2017-08-10T06:31:23.652Z,3152
2017-08-10T06:32:23.369Z,3040
2017-08-10T06:33:24.031Z,2984
2017-08-10T06:34:23.793Z,2912
2017-08-10T06:35:24.468Z,2836
2017-08-10T06:36:24.196Z,2792
2017-08-10T06:37:23.900Z,2844
2017-08-10T06:38:23.954Z,2980
2017-08-10T06:39:24.638Z,3128
2017-08-10T06:40:24.973Z,3248
2017-08-10T06:41:25.332Z,3296
2017-08-10T06:42:25.060Z,3332
2017-08-10T06:43:25.409Z,3360
2017-08-10T06:44:25.144Z,3380
2017-08-10T06:45:24.848Z,3376
2017-08-10T06:46:25.838Z,3304
2017-08-10T06:47:25.837Z,3232
2017-08-10T06:48:25.599Z,3216
2017-08-10T06:49:25.944Z,3212
2017-08-10T06:50:25.983Z,3248
2017-08-10T06:51:26.005Z,3308
2017-08-10T06:52:25.440Z,3408
2017-08-10T06:53:26.075Z,3456
2017-08-10T06:54:25.476Z,3436
2017-08-10T06:55:25.829Z,3344
2017-08-10T06:56:26.180Z,3248
2017-08-10T06:57:26.200Z,3176
2017-08-10T06:58:26.558Z,3188
2017-08-10T06:59:26.250Z,3324
2017-08-10T07:00:26.947Z,3592
2017-08-10T07:01:26.633Z,3816
2017-08-10T07:02:26.682Z,4024
2017-08-10T07:03:27.028Z,4100
2017-08-10T07:04:27.065Z,4052
2017-08-10T07:05:26.785Z,3944
2017-08-10T07:06:27.113Z,3908
2017-08-10T07:07:26.909Z,3940
2017-08-10T07:08:26.914Z,4024
2017-08-10T07:09:26.629Z,4152
2017-08-10T07:10:27.301Z,4168
2017-08-10T07:11:27.339Z,4148
2017-08-10T07:12:27.118Z,4152
2017-08-10T07:13:27.065Z,4112
2017-08-10T07:14:27.443Z,4100
2017-08-10T07:15:27.526Z,3988
2017-08-10T07:16:27.193Z,3816
2017-08-10T07:17:27.820Z,3652
2017-08-10T07:18:27.875Z,3612
2017-08-10T07:19:27.588Z,3644
2017-08-10T07:20:27.943Z,3704
2017-08-10T07:21:27.961Z,3784
2017-08-10T07:22:27.696Z,3868
2017-08-10T07:23:28.368Z,3896
2017-08-10T07:24:28.095Z,3924
2017-08-10T07:25:27.780Z,3940
2017-08-10T07:26:28.444Z,3900
2017-08-10T07:27:28.836Z,3848
2017-08-10T07:28:29.164Z,3808
2017-08-10T07:29:28.816Z,3824
2017-08-10T07:30:29.180Z,3848
2017-08-10T07:31:29.222Z,3884
2017-08-10T07:32:28.977Z,4012
2017-08-10T07:33:29.949Z,4136
2017-08-10T07:34:30.094Z,4412
2017-08-10T07:35:29.723Z,4540
2017-08-10T07:36:29.749Z,4892
2017-08-10T07:37:30.457Z,5676
2017-08-10T07:38:30.508Z,6140
2017-08-10T07:39:30.491Z,6556
2017-08-10T07:40:30.540Z,7592
2017-08-10T07:41:30.554Z,8872
2017-08-10T07:42:29.978Z,10252
2017-08-10T07:43:30.638Z,11152
2017-08-10T07:44:30.705Z,11124
2017-08-10T07:45:30.423Z,10764
2017-08-10T07:46:30.484Z,10776
2017-08-10T07:47:30.819Z,10284
2017-08-10T07:48:30.818Z,9900
2017-08-10T07:49:30.569Z,9428
2017-08-10T07:50:30.915Z,8628
2017-08-10T07:51:30.914Z,7596
2017-08-10T07:52:30.954Z,7368
2017-08-10T07:53:31.317Z,7268
2017-08-10T07:54:30.737Z,7140
2017-08-10T07:55:31.117Z,6920
2017-08-10T07:56:31.169Z,6972
2017-08-10T07:57:31.208Z,7132
2017-08-10T07:58:31.586Z,7084
2017-08-10T07:59:31.038Z,7144
2017-08-10T08:00:31.725Z,7160
2017-08-10T08:01:31.463Z,7384
2017-08-10T08:02:31.489Z,7848
2017-08-10T08:03:32.163Z,8588
2017-08-10T08:04:32.215Z,8936
2017-08-10T08:05:32.255Z,9096
2017-08-10T08:06:32.300Z,10032
2017-08-10T08:07:32.024Z,11012
2017-08-10T08:08:32.360Z,10572
2017-08-10T08:09:32.094Z,11296
2017-08-10T08:10:32.428Z,11132
2017-08-10T08:11:32.177Z,10564
2017-08-10T08:12:32.188Z,10092
2017-08-10T08:13:32.626Z,9380
2017-08-10T08:14:31.981Z,8560
2017-08-10T08:15:32.951Z,7920
2017-08-10T08:16:32.991Z,7516
2017-08-10T08:17:32.763Z,7264
2017-08-10T08:18:33.074Z,7284
2017-08-10T08:19:33.116Z,7464
2017-08-10T08:20:32.889Z,7736
2017-08-10T08:21:32.841Z,8092
2017-08-10T08:22:32.920Z,8364
2017-08-10T08:23:33.278Z,8372
2017-08-10T08:24:33.294Z,8152
2017-08-10T08:25:33.044Z,7860
2017-08-10T08:26:33.427Z,7592
2017-08-10T08:27:33.471Z,7360
2017-08-10T08:28:33.456Z,7016
2017-08-10T08:29:33.527Z,6680
2017-08-10T08:30:33.234Z,6512
2017-08-10T08:31:33.260Z,6364
2017-08-10T08:32:33.295Z,6340
2017-08-10T08:33:33.373Z,6344
2017-08-10T08:34:33.407Z,6512
2017-08-10T08:35:33.497Z,6656
2017-08-10T08:36:33.877Z,6892
2017-08-10T08:37:34.859Z,7144
2017-08-10T08:38:34.626Z,7524
2017-08-10T08:39:34.949Z,7812
2017-08-10T08:40:35.436Z,7932
2017-08-10T08:41:34.987Z,7956
2017-08-10T08:42:35.030Z,7996
2017-08-10T08:43:36.427Z,7836
2017-08-10T08:44:36.142Z,7572
2017-08-10T08:45:36.135Z,7296
2017-08-10T08:46:35.525Z,7020
2017-08-10T08:47:35.928Z,6752
2017-08-10T08:48:36.298Z,6548
2017-08-10T08:49:36.304Z,6432
2017-08-10T08:50:36.023Z,6376
2017-08-10T08:51:36.104Z,6512
2017-08-10T08:52:36.459Z,6692
2017-08-10T08:53:36.695Z,6944
2017-08-10T08:54:36.183Z,7432
2017-08-10T08:55:36.252Z,7544
2017-08-10T08:56:36.573Z,7364
2017-08-10T08:57:36.636Z,7236
2017-08-10T08:58:36.356Z,7244
2017-08-10T08:59:36.689Z,7404
2017-08-10T09:00:36.750Z,7856
2017-08-10T09:01:36.518Z,7968
2017-08-10T09:02:36.809Z,7868
2017-08-10T09:03:36.875Z,7632
2017-08-10T09:04:36.581Z,7224
2017-08-10T09:05:36.953Z,6752
2017-08-10T09:06:36.988Z,6444
2017-08-10T09:07:36.685Z,6348
2017-08-10T09:08:36.725Z,6584
2017-08-10T09:09:37.067Z,6784
2017-08-10T09:10:36.807Z,7008
2017-08-10T09:11:37.161Z,6968
2017-08-10T09:12:37.169Z,6840
2017-08-10T09:13:36.898Z,6500
2017-08-10T09:14:37.575Z,6108
2017-08-10T09:15:36.994Z,5820
2017-08-10T09:16:37.974Z,5592
2017-08-10T09:17:38.007Z,5476
2017-08-10T09:18:38.083Z,5416
2017-08-10T09:19:37.763Z,5324
2017-08-10T09:20:38.134Z,5188
2017-08-10T09:21:38.133Z,5200
2017-08-10T09:22:38.204Z,5264
2017-08-10T09:23:38.254Z,5368
2017-08-10T09:24:37.691Z,5468
2017-08-10T09:25:38.299Z,5608
2017-08-10T09:26:38.327Z,5732
2017-08-10T09:27:38.064Z,5912
2017-08-10T09:28:38.415Z,6068
2017-08-10T09:29:38.451Z,6268
2017-08-10T09:30:38.471Z,6500
2017-08-10T09:31:38.548Z,6816
2017-08-10T09:32:38.258Z,7032
2017-08-10T09:33:38.304Z,7232
2017-08-10T09:34:38.989Z,7372
2017-08-10T09:35:39.004Z,7540
2017-08-10T09:36:38.785Z,7588
2017-08-10T09:37:39.133Z,7460
2017-08-10T09:38:39.136Z,7104
2017-08-10T09:39:38.525Z,6668
2017-08-10T09:40:39.206Z,6252
2017-08-10T09:41:39.532Z,5788
2017-08-10T09:42:39.595Z,5472
2017-08-10T09:43:39.293Z,5456
2017-08-10T09:44:39.683Z,5740
2017-08-10T09:45:39.403Z,6108
2017-08-10T09:46:39.431Z,6636
2017-08-10T09:47:39.796Z,7280
2017-08-10T09:48:39.495Z,7560
2017-08-10T09:49:39.833Z,7736
2017-08-10T09:50:39.904Z,7924
2017-08-10T09:51:39.910Z,8128
2017-08-10T09:52:39.966Z,8224
2017-08-10T09:53:39.380Z,8280
2017-08-10T09:54:40.379Z,8340
2017-08-10T09:55:40.405Z,8432
2017-08-10T09:56:39.795Z,8576
2017-08-10T09:57:40.772Z,8816
2017-08-10T09:58:40.813Z,9220
2017-08-10T09:59:40.545Z,9796
2017-08-10T10:00:40.874Z,10592
2017-08-10T10:01:40.629Z,11728
2017-08-10T10:02:41.275Z,13780
2017-08-10T10:03:41.001Z,14204
2017-08-10T10:04:41.348Z,13952
2017-08-10T10:05:40.776Z,13716
2017-08-10T10:06:40.814Z,16832
2017-08-10T10:07:41.166Z,14068
2017-08-10T10:08:41.241Z,13940
2017-08-10T10:09:41.570Z,16000
2017-08-10T10:10:41.904Z,16832
2017-08-10T10:11:41.947Z,16032
2017-08-10T10:12:41.674Z,16352
2017-08-10T10:13:42.316Z,16768
2017-08-10T10:14:42.060Z,30848
2017-08-10T10:15:42.701Z,23584
2017-08-10T10:16:42.426Z,15180
2017-08-10T10:17:43.077Z,15584
2017-08-10T10:18:42.834Z,19488
2017-08-10T10:19:43.150Z,23232
2017-08-10T10:20:43.206Z,24800
2017-08-10T10:21:43.589Z,42080
2017-08-10T10:22:43.353Z,34112
2017-08-10T10:23:44.324Z,43168
2017-08-10T10:24:44.061Z,54496
2017-08-10T10:25:44.392Z,55520
2017-08-10T10:26:44.463Z,54944
2017-08-10T10:27:44.463Z,53056
2017-08-10T10:28:44.259Z,54816
2017-08-10T10:29:44.552Z,55456
2017-08-10T10:30:44.303Z,58848
2017-08-10T10:31:44.620Z,61824
2017-08-10T10:32:44.671Z,61344
2017-08-10T10:33:44.416Z,53920
2017-08-10T10:34:44.748Z,54624
2017-08-10T10:35:44.798Z,63040
2017-08-10T10:36:44.524Z,62784
2017-08-10T10:37:44.612Z,66304
2017-08-10T10:38:44.981Z,66752
2017-08-10T10:39:45.655Z,69088
2017-08-10T10:40:45.705Z,68160
2017-08-10T10:41:45.114Z,63520
2017-08-10T10:42:45.480Z,57952
2017-08-10T10:43:46.446Z,52000
2017-08-10T10:44:46.184Z,54752
2017-08-10T10:45:46.191Z,61920
2017-08-10T10:46:46.635Z,62336
2017-08-10T10:47:46.313Z,58208
2017-08-10T10:48:46.678Z,56704
2017-08-10T10:49:46.453Z,59456
2017-08-10T10:50:46.751Z,62464
2017-08-10T10:51:46.813Z,63008
2017-08-10T10:52:46.850Z,61504
2017-08-10T10:53:46.881Z,45024
2017-08-10T10:54:46.939Z,20928
2017-08-10T10:55:46.981Z,14308
2017-08-10T10:56:46.710Z,13804
2017-08-10T10:57:46.735Z,14320
2017-08-10T10:58:47.089Z,15680
2017-08-10T10:59:46.818Z,16992
2017-08-10T11:00:47.225Z,16512
2017-08-10T11:01:47.285Z,15004
2017-08-10T11:02:47.315Z,14928
2017-08-10T11:03:47.975Z,14672
2017-08-10T11:04:47.756Z,14756
2017-08-10T11:05:47.402Z,14816
2017-08-10T11:06:47.525Z,14464
2017-08-10T11:07:47.155Z,13952
2017-08-10T11:08:47.790Z,13672
2017-08-10T11:09:47.535Z,13768
2017-08-10T11:10:47.561Z,14156
2017-08-10T11:11:48.264Z,14456
2017-08-10T11:12:47.947Z,14768
2017-08-10T11:13:48.634Z,14556
2017-08-10T11:14:48.669Z,14232
2017-08-10T11:15:48.704Z,14084
2017-08-10T11:16:48.743Z,13468
2017-08-10T11:17:48.753Z,12604
2017-08-10T11:18:49.136Z,12516
2017-08-10T11:19:49.206Z,12764
2017-08-10T11:20:48.911Z,12960
2017-08-10T11:21:49.257Z,12632
2017-08-10T11:22:48.992Z,12224
2017-08-10T11:23:48.994Z,11908
2017-08-10T11:24:48.759Z,12036
2017-08-10T11:25:49.461Z,12428
2017-08-10T11:26:49.456Z,12800
2017-08-10T11:27:49.222Z,12780
2017-08-10T11:28:49.880Z,12524
2017-08-10T11:29:49.283Z,11492
2017-08-10T11:30:49.973Z,11188
2017-08-10T11:31:50.024Z,10756
2017-08-10T11:32:50.055Z,10864
2017-08-10T11:33:50.105Z,11008
2017-08-10T11:34:50.129Z,10952
2017-08-10T11:35:49.859Z,10268
2017-08-10T11:36:49.902Z,10052
2017-08-10T11:37:50.559Z,10040
2017-08-10T11:38:50.003Z,10460
2017-08-10T11:39:50.988Z,10504
2017-08-10T11:40:50.692Z,10376
2017-08-10T11:41:51.068Z,10288
2017-08-10T11:42:50.760Z,10524
2017-08-10T11:43:51.123Z,10348
2017-08-10T11:44:51.226Z,9996
2017-08-10T11:45:50.903Z,9104
2017-08-10T11:46:50.889Z,7896
2017-08-10T11:47:51.563Z,7180
2017-08-10T11:48:51.599Z,6388
2017-08-10T11:49:51.354Z,5484
2017-08-10T11:50:51.385Z,5368
2017-08-10T11:51:51.754Z,4984
2017-08-10T11:52:51.786Z,5100
2017-08-10T11:53:51.548Z,5040
2017-08-10T11:54:52.218Z,4968
2017-08-10T11:55:52.562Z,4868
2017-08-10T11:56:52.605Z,4740
2017-08-10T11:57:52.313Z,4628
2017-08-10T11:58:52.378Z,4700
2017-08-10T11:59:52.084Z,4968
2017-08-10T12:00:52.764Z,5348
2017-08-10T12:01:53.119Z,5488
2017-08-10T12:02:52.239Z,5304
2017-08-10T12:03:52.585Z,5872
2017-08-10T12:04:52.618Z,5936
2017-08-10T12:05:52.975Z,6100
2017-08-10T12:06:53.019Z,6260
2017-08-10T12:07:53.382Z,6012
2017-08-10T12:08:53.738Z,5568
2017-08-10T12:09:53.485Z,5680
2017-08-10T12:10:53.463Z,5956
2017-08-10T12:11:53.542Z,5536
2017-08-10T12:12:53.963Z,5212
2017-08-10T12:13:54.257Z,4932
2017-08-10T12:14:54.288Z,5164
2017-08-10T12:15:54.349Z,5576
2017-08-10T12:16:54.095Z,5736
2017-08-10T12:17:54.167Z,5424
2017-08-10T12:18:54.502Z,5620
2017-08-10T12:19:54.546Z,5872
2017-08-10T12:20:54.270Z,6228
2017-08-10T12:21:54.886Z,5968
2017-08-10T12:22:54.648Z,6064
2017-08-10T12:23:54.994Z,5916
2017-08-10T12:24:55.049Z,5988
2017-08-10T12:25:55.046Z,5968
2017-08-10T12:26:54.765Z,5492
2017-08-10T12:27:55.090Z,5360
2017-08-10T12:28:55.162Z,5148
2017-08-10T12:29:55.484Z,5552
2017-08-10T12:30:55.553Z,6056
2017-08-10T12:31:55.577Z,6180
2017-08-10T12:32:55.606Z,6096
2017-08-10T12:33:55.679Z,5780
2017-08-10T12:34:55.682Z,6508
2017-08-10T12:35:55.422Z,6608
2017-08-10T12:36:55.990Z,6388
2017-08-10T12:37:55.798Z,6200
2017-08-10T12:38:55.848Z,6424
2017-08-10T12:39:55.908Z,6736
2017-08-10T12:40:55.922Z,6828
2017-08-10T12:41:55.651Z,6776
2017-08-10T12:42:55.718Z,6784
2017-08-10T12:43:55.726Z,6772
2017-08-10T12:44:56.108Z,6624
2017-08-10T12:45:56.125Z,6616
2017-08-10T12:46:56.529Z,6704
2017-08-10T12:47:56.550Z,6700
2017-08-10T12:48:56.898Z,6736
2017-08-10T12:49:56.346Z,6604
2017-08-10T12:50:57.353Z,6228
2017-08-10T12:51:57.055Z,6244
2017-08-10T12:52:57.381Z,6624
2017-08-10T12:53:57.128Z,6900
2017-08-10T12:54:57.157Z,6868
2017-08-10T12:55:57.499Z,6840
2017-08-10T12:56:57.251Z,6824
2017-08-10T12:57:57.612Z,6876
2017-08-10T12:58:57.318Z,6672
2017-08-10T12:59:57.364Z,6432
2017-08-10T13:00:57.689Z,6216
2017-08-10T13:01:57.951Z,6248
2017-08-10T13:02:57.444Z,6212
2017-08-10T13:03:57.852Z,6104
2017-08-10T13:04:57.557Z,5888
2017-08-10T13:05:57.880Z,5668
2017-08-10T13:06:57.648Z,5504
2017-08-10T13:07:58.325Z,5536
2017-08-10T13:08:58.086Z,5660
2017-08-10T13:09:58.414Z,5936
2017-08-10T13:10:58.148Z,6140
2017-08-10T13:11:58.460Z,6180
2017-08-10T13:12:58.856Z,6244
2017-08-10T13:13:58.858Z,6264
2017-08-10T13:14:58.566Z,6148
2017-08-10T13:15:58.311Z,6024
2017-08-10T13:16:59.264Z,6004
2017-08-10T13:17:59.323Z,5908
2017-08-10T13:18:59.351Z,5652
2017-08-10T13:19:59.387Z,5644
2017-08-10T13:20:59.124Z,5444
2017-08-10T13:21:59.494Z,5184
2017-08-10T13:22:59.524Z,4924
2017-08-10T13:23:59.562Z,4732
2017-08-10T13:24:59.624Z,4728
2017-08-10T13:25:59.028Z,4788
2017-08-10T13:26:59.393Z,4668
2017-08-10T13:27:59.707Z,4340
2017-08-10T13:28:59.751Z,4260
2017-08-10T13:29:59.804Z,4268
2017-08-10T13:30:59.865Z,4284
2017-08-10T13:31:59.287Z,4384
2017-08-10T13:33:00.257Z,4468
2017-08-10T13:34:00.299Z,4484
2017-08-10T13:35:00.052Z,4548
2017-08-10T13:36:00.749Z,4524
2017-08-10T13:37:00.509Z,4540
2017-08-10T13:38:01.180Z,4472
2017-08-10T13:39:00.953Z,4376
2017-08-10T13:40:01.694Z,4320
2017-08-10T13:41:01.079Z,4244